Aeroporto :
LOGIN :

Iscrizione | Disclaimer

   EN    FR    IT 

 










Sommario :    VFR   VFR Marginale   IFR   IFR Intensivo   IFR Molto Intensivo
Visibilità : 
Base nubi : 
>= 8 km
>= 3000ft
5 / 8 km
1000 / 3000 ft
1500m / 5 km
500 / 1000 ft
800 / 1500m
200 / 500 ft
< 800m
< 200 ft
Simboli :   Temporali  Nebbia  Neve Forte  Precipitazioni Forti  Vento > 20 kt
SIGMETs :   Varie  Temporali  Ghiacco  Turbolenza  Onda orograficha  Ceneri Vulcaniche






- Altitudine del aeroporto : 622 ft
- Codice IATA : BRS


EGGD - Bristol Int.

ULTIMO METAR :
  • 270750Z AUTO 26016KT 9999 NCD 11/09 Q1006

METARs OBSOLETI :
  • 270720Z AUTO 26017KT 9999 FEW020 11/09 Q1005
  • 270650Z AUTO 26013KT 9999 NCD 11/09 Q1004
  • 270620Z AUTO 28012KT 9999 SCT046 11/09 Q1003
  • 270550Z AUTO 27020KT 9999 FEW002 SCT006 BKN011 10/10 Q1001 RERA
  • 270520Z 24017KT 4000 RA OVC001CB 11/11 Q1000 RERA

TAF AMD TAF EGGD
Valido dal 27 a 06 ore il 28 a 06 ore UTC


270536Z 2706/2806 26018G32KT 6000 RA BKN004
BECMG 2706/2708 26013KT 9999 NSW SCT018
PROB30
TEMPO 2706/2707 BKN001
TEMPO 2708/2717 26016G26KT 7000 SHRA
PROB40
TEMPO 2708/2712 BKN012
PROB30
TEMPO 2709/2716 4000 +SHRA
BECMG 2715/2718 21008KT
PROB30
TEMPO 2804/2806 8000 SHRA
ATIS : +44 1275 473 666



MetMap, La meteo Aeronautica in un colpo d'occhio ! - Copyright ORBIFLY Dicembre 2007 - Disclaimer

ORBIFLY MET'MAP TEAM :

Programmazione e sviluppo : Alexandra Zaïnal
Concezione : Baudouin d'Aumeries
Aiuto per la programmazione : Marc-Olivier Méhu
Supporto tecnico e logistico : Manuel Goepfert
Aiuto per la traduzione : Arnaldo La Scala

Contatto : metmap@orbifly.com




FONTI E CREDITI :

   NOAA